Observations for RIMINI CIV IT-AFB, Italy (LIPR)

LIPR 191950Z VRB01KT CAVOK 15/12 Q1016  
LIPR 191920Z VRB01KT CAVOK 16/12 Q1016  
LIPR 191850Z 14002KT CAVOK 18/12 Q1016  
LIPR 191820Z 17003KT CAVOK 19/12 Q1016  
LIPR 191750Z 18004KT CAVOK 19/12 Q1016  
LIPR 191720Z 18004KT CAVOK 20/12 Q1016  
LIPR 191650Z 17004KT CAVOK 20/12 Q1015  
LIPR 191620Z 18004KT CAVOK 21/12 Q1015  
LIPR 191550Z 19007KT 170V250 9999 FEW050 23/12 Q1015
LIPR 191520Z 19007KT 9999 FEW050 24/12 Q1015
LIPR 191450Z VRB07KT 9999 FEW050 24/11 Q1015
LIPR 191420Z 19008KT 9999 SCT050 24/12 Q1015
LIPR 191350Z 23005KT 210V270 9999 SCT050 24/11 Q1015
LIPR 191320Z 22006KT 9999 SCT050 25/11 Q1015
LIPR 191250Z 24004KT 190V290 9999 SCT055 24/12 Q1015
LIPR 191220Z 17006KT 140V230 9999 FEW050 24/12 Q1015
LIPR 191150Z 18006KT 130V220 9999 FEW050 24/13 Q1015
LIPR 191120Z 18007KT 140V220 9999 FEW030 24/13 Q1016
LIPR 191050Z 17007KT 130V200 9999 FEW030 23/13 Q1016
LIPR 191020Z 17007KT 120V230 CAVOK 23/13 Q1016  
LIPR 190950Z 19007KT 150V210 CAVOK 23/13 Q1016  
LIPR 190920Z 19008KT 160V220 CAVOK 22/13 Q1016  
LIPR 190850Z 19008KT 140V220 CAVOK 21/13 Q1016  
LIPR 190820Z 20006KT CAVOK 20/13 Q1016  
LIPR 190750Z 20007KT CAVOK 20/13 Q1016  
LIPR 190720Z 19007KT CAVOK 19/13 Q1016  
LIPR 190650Z 19008KT CAVOK 18/13 Q1016  
LIPR 190620Z 18007KT CAVOK 17/12 Q1016  
LIPR 190550Z 17004KT CAVOK 16/12 Q1015  
LIPR 190520Z 13003KT CAVOK 17/12 Q1016  
LIPR 190450Z AUTO 18005KT 9999 BKN200/// 17/12 Q1016
LIPR 190450Z AUTO 18005KT 9999 BKN200 17/12 Q1016
LIPR 190420Z AUTO 18003KT 9999 SCT066/// BKN210/// 15/12 Q1016  
LIPR 190420Z AUTO 18003KT 9999 SCT066 BKN210 15/12 Q1016
LIPR 190350Z AUTO 18003KT 9999 BKN067/// 15/12 Q1016
LIPR 190350Z AUTO 18003KT 9999 BKN067 15/12 Q1016
LIPR 190320Z AUTO 19003KT 9999 OVC067/// 15/12 Q1016
LIPR 190320Z AUTO 19003KT 9999 OVC067 15/12 Q1016
LIPR 190250Z AUTO 24003KT 190V280 9999 BKN068/// 15/12 Q1016
LIPR 190250Z AUTO 24003KT 190V280 9999 BKN068 15/12 Q1016
LIPR 190220Z AUTO 14005KT 9999 BKN068/// 15/12 Q1016
LIPR 190220Z AUTO 14005KT 9999 BKN068 15/12 Q1016
LIPR 190150Z AUTO 15003KT 9999 OVC069/// 14/12 Q1016
LIPR 190150Z AUTO 15003KT 9999 OVC069 14/12 Q1016
LIPR 190120Z AUTO VRB02KT 9999 BKN067/// 14/12 Q1016
LIPR 190120Z AUTO VRB02KT 9999 BKN067 14/12 Q1016
LIPR 190050Z AUTO VRB02KT 9999 BKN059/// 14/12 Q1016
LIPR 190050Z AUTO VRB02KT 9999 BKN059 14/12 Q1016
LIPR 190020Z AUTO 18002KT 9999 BKN059/// BKN097/// 14/12 Q1017  
LIPR 190020Z AUTO 18002KT 9999 BKN059 BKN097 14/12 Q1017
LIPR 182350Z AUTO 19002KT 9999 BKN057/// BKN099/// 15/12 Q1017  
LIPR 182350Z AUTO 19002KT 9999 BKN057 BKN099 15/12 Q1017
LIPR 182320Z AUTO 24003KT 9999 BKN059/// 14/12 Q1017
LIPR 182320Z AUTO 24003KT 9999 BKN059 14/12 Q1017
LIPR 182250Z AUTO VRB02KT 9999 BKN063/// 14/12 Q1016
LIPR 182250Z AUTO VRB02KT 9999 BKN063 14/12 Q1016
LIPR 182220Z AUTO 19002KT 9999 OVC064/// 13/11 Q1017
LIPR 182220Z AUTO 19002KT 9999 OVC064 13/11 Q1017
LIPR 182150Z AUTO VRB01KT 9999 FEW065/// 13/11 Q1017
LIPR 182150Z AUTO VRB01KT 9999 FEW065 13/11 Q1017
LIPR 182120Z AUTO 18003KT 9999 NCD 13/11 Q1017  
LIPR 182050Z 19003KT CAVOK 14/12 Q1017  
LIPR 182020Z 18003KT CAVOK 14/12 Q1017  
LIPR 181950Z 17002KT CAVOK 14/12 Q1017  
LIPR 181920Z VRB02KT CAVOK 14/12 Q1017